logo
App data

Abrix 2 - Brown version

Abrix 2 is an addictive puzzle game for everyone. Try over 170 different levels of puzzles and secrets and help Abrix, a tiny toy robot, to find a way out. Abrix 2 is a continuation of a hit game Abrix the robot. Now with new graphics and full of new stuff it's better than ever.
Store | Hub | SteamDB
Developer: EJRGames Publisher: EJRGames
Genre: Casual, Indie, Strategy
Languages: English, Polish
Tags: Casual (37), Strategy (36), Indie (35), Puzzle (6)
Category: Single-player, Steam Cloud
Release date: Aug 12, 2016 (previously in Early Access)
Price: $0.89 55%
Old userscore: 33% Owners: 20,000 .. 50,000
Followers: 112
Peak concurrent players yesterday: 1
Playtime total: 03:44 (average) 04:56 (median)

Steam Spy is still in beta, so expect major bugs.

Owners data:

Access restricted.

This feature is only available to users with special access rights. Sorry.

If you want to proceed, you need to register or log in first and then back Steam Spy on Patreon. Look for Indie or Pro pledge.

Don't forget to use the same email as on Steam Spy!

Audience in 2 weeks:

Access restricted.

This feature is only available to users with special access rights. Sorry.

If you want to proceed, you need to register or log in first and then back Steam Spy on Patreon. Look for Indie or Pro pledge.

Don't forget to use the same email as on Steam Spy!

Peak daily concurrent players:

CCU data courtesy of SteamDB. Used with permission.

Hourly concurrent players:

Followers over time

Access restricted.

This feature is only available to users with special access rights. Sorry.

If you want to proceed, you need to register or log in first and then back Steam Spy on Patreon. Look for Indie or Pro pledge.

Don't forget to use the same email as on Steam Spy!

Views for top 50 videos on YouTube for this game:

Games similar to this one:

# Game Release date
Price
Score rank
(Userscore / Metascore)
Owners
Players
Playtime (Median)
1 Love in the Glen Jun 9, 2016 $5.99N/A (N/A)20,000 .. 50,0000%00:00 (00:00)
2 RePete Nov 1, 2015 $1.99N/A (N/A)0 .. 20,0000%00:00 (00:00)
3 Hyposphere May 5, 2016 $2.99N/A (N/A)200,000 .. 500,0000%00:00 (00:00)
4 Caravanserail Feb 26, 2016 $2.99N/A (N/A)0 .. 20,0000%00:00 (00:00)
5 Townopolis Oct 19, 2008 $0.99N/A (N/A)20,000 .. 50,0000%00:00 (00:00)
6 Axes and Acres Apr 7, 2016 $9.99N/A (N/A)0 .. 20,0000%00:00 (00:00)
7 Annie Amber Jun 17, 2016 $0.5N/A (N/A)0 .. 20,0000%00:00 (00:00)
8 Party Saboteurs: After Party Mar 31, 2016 $9.99N/A (N/A)0 .. 20,0000%00:00 (00:00)
9 Autumn Sep 23, 2014 $2.99N/A (N/A)50,000 .. 100,0000%00:00 (00:00)
10 Hustle Cat Mar 16, 2016 $19.99N/A (N/A)50,000 .. 100,0000%00:00 (00:00)
11 Impossible Quest Jun 3, 2016 $1.99N/A (N/A)20,000 .. 50,0000%00:00 (00:00)
12 Project Starship Apr 5, 2016 $2.99N/A (N/A)50,000 .. 100,0003.23%00:01 (00:00)
13 Moonlight Feb 5, 2016 $1.99N/A (N/A)0 .. 20,0000%00:00 (00:00)
14 Forgotten, Not Lost - A Kinetic Novel Apr 2, 2016 $1.99N/A (N/A)20,000 .. 50,0000%00:00 (00:00)
15 Drawful 2 Jun 20, 2016 $9.99N/A (N/A)200,000 .. 500,0004.23%03:07 (07:01)
16 Melting Hearts: Our Love Will Grow 2 Apr 29, 2016 N/AN/A (N/A)20,000 .. 50,0000%00:00 (00:00)
17 Star Sky 2 Mar 2, 2016 $3.99N/A (N/A)0 .. 20,0000%00:00 (00:00)
18 Strategy & Tactics: Dark Ages Aug 4, 2017 $14.99N/A (N/A)50,000 .. 100,0000%00:00 (00:00)
19 Won't You Be My Laser? Sep 2, 2016 $0.99N/A (N/A)0 .. 20,0000%00:00 (00:00)
20 The Shape Of Heart Oct 25, 2016 $2.99N/A (N/A)50,000 .. 100,0000%00:00 (00:00)
21 Turbo Pug 3D Sep 20, 2016 $1.99N/A (N/A)200,000 .. 500,0000%00:00 (00:00)
22 Masky Dec 16, 2016 $0.99N/A (N/A)20,000 .. 50,0000%00:00 (00:00)
23 Off-Road Paradise: Trial 4x4 Feb 6, 2017 $19.99N/A (N/A)0 .. 20,0000%00:00 (00:00)
24 Reset 1-1 Aug 30, 2016 $1.99N/A (N/A)200,000 .. 500,0000%00:00 (00:00)
25 Planes, Bullets and Vodka Dec 13, 2016 $0.49N/A (N/A)100,000 .. 200,0007.69%00:01 (00:00)
26 Riddles Of The Past Jul 22, 2016 $6.99N/A (N/A)20,000 .. 50,0000%00:00 (00:00)
27 Optika Aug 26, 2016 $4.99N/A (N/A)0 .. 20,0000%00:00 (00:00)
28 Luxor Evolved Mar 1, 2012 $9.99N/A (N/A)50,000 .. 100,0000%00:00 (00:00)
29 Quantum Rush Champions Dec 4, 2014 $9.99N/A (N/A)20,000 .. 50,0000%00:00 (00:00)
30 Divide By Sheep Jul 2, 2015 $4.99N/A (N/A/83%)2,000,000 .. 5,000,0004.74%00:01 (00:01)
31 Sinister City Oct 18, 2014 $0.99N/A (N/A)100,000 .. 200,0000%00:00 (00:00)
32 Particulars Nov 19, 2014 $5.99N/A (N/A/74%)0 .. 20,0000%00:00 (00:00)
33 Alchemy Mysteries: Prague Legends Dec 22, 2014 $1.99N/A (N/A)100,000 .. 200,0000%00:00 (00:00)
34 Smooth Operators Jan 14, 2013 $2.99N/A (N/A)20,000 .. 50,0000%00:00 (00:00)
35 Over The Void Nov 11, 2014 $4.99N/A (N/A)20,000 .. 50,0000%00:00 (00:00)
36 Girls Like Robots Feb 14, 2014 $6.99N/A (N/A)100,000 .. 200,0000%00:00 (00:00)
37 1931: Scheherazade at the Library of Pergamum Mar 26, 2015 $9.99N/A (N/A)0 .. 20,0000%00:00 (00:00)
38 Paranormal State: Poison Spring Nov 26, 2013 $9.99N/A (N/A)50,000 .. 100,0000%00:00 (00:00)
39 Crashed Lander Jun 17, 2014 $4.99N/A (N/A)0 .. 20,0000%00:00 (00:00)
40 Rage Runner May 16, 2014 $4.99N/A (N/A)0 .. 20,0000%00:00 (00:00)
41 Governor of Poker 2 - Premium Edition Oct 11, 2010 $14.99N/A (N/A)20,000 .. 50,0000%00:00 (00:00)
42 Cute Things Dying Violently Sep 2, 2015 $2.99N/A (N/A)0 .. 20,0000%00:00 (00:00)
43 Puzzler World 2 Oct 24, 2011 $4.99N/A (N/A)20,000 .. 50,0000%00:00 (00:00)
44 OTTTD Aug 6, 2014 $1.19N/A (N/A)50,000 .. 100,0000%00:00 (00:00)
45 The Reject Demon: Toko Chapter 0 — Prelude May 9, 2015 $4.99N/A (N/A)20,000 .. 50,0000%00:00 (00:00)
46 Pixel Puzzles 2: Birds Feb 20, 2015 $1.74N/A (N/A)200,000 .. 500,0003.45%02:34 (00:51)
47 Egg Returns Home May 5, 2015 $0.99N/A (N/A)20,000 .. 50,0000%00:00 (00:00)
48 Stay Alight Mar 2, 2015 $3.99N/A (N/A)50,000 .. 100,0000%00:00 (00:00)
49 Red Goblin: Cursed Forest May 15, 2015 $4.99N/A (N/A)0 .. 20,0000%00:00 (00:00)
50 Ski Park Tycoon Feb 3, 2015 $9.99N/A (N/A)0 .. 20,0000%00:00 (00:00)
51 Rolling Shapes Jun 5, 2015 $0.99N/A (N/A)0 .. 20,0000%00:00 (00:00)
52 Terraform May 8, 2015 $2.99N/A (N/A)0 .. 20,0000%00:00 (00:00)
53 Way of Gold and Steel Aug 17, 2015 $8.99N/A (N/A)0 .. 20,0000%00:00 (00:00)
54 Stephen's Sausage Roll Apr 18, 2016 $29.99N/A (N/A/90%)20,000 .. 50,0000%00:00 (00:00)
55 Energy Balance Jul 2, 2015 $2.99N/A (N/A)200,000 .. 500,0000%00:00 (00:00)
56 Oil Enterprise Apr 20, 2016 $24.99N/A (N/A)0 .. 20,0000%00:00 (00:00)
57 Unhack Feb 20, 2014 $3.99N/A (N/A)20,000 .. 50,0000%00:00 (00:00)
58 Pester Jan 25, 2013 $0.99N/A (N/A)100,000 .. 200,0000%00:00 (00:00)
59 Crash Drive 2 May 28, 2015 $4.99N/A (N/A)100,000 .. 200,0000%00:00 (00:00)
60 Unium Feb 3, 2015 $1.99N/A (N/A)0 .. 20,0000%00:00 (00:00)
61 Bob Was Hungry Aug 19, 2015 $9.99N/A (N/A)50,000 .. 100,0000%00:00 (00:00)
62 Tennis in the Face Nov 18, 2015 $4.99N/A (N/A)0 .. 20,0000%00:00 (00:00)
63 Star Chronicles: Delta Quadrant Jul 7, 2015 $0.99N/A (N/A)500,000 .. 1,000,0000%00:00 (00:00)
64 12 Labours of Hercules IV: Mother Nature (Platinum Edition) Dec 25, 2015 $2.99N/A (N/A)20,000 .. 50,0000%00:00 (00:00)
65 League of Mermaids Jul 23, 2013 $6.99N/A (N/A)0 .. 20,0000%00:00 (00:00)
66 Anode Oct 5, 2015 $3.99N/A (N/A)20,000 .. 50,0000%00:00 (00:00)
67 Sentinel 4: Dark Star Aug 13, 2015 $6.99N/A (N/A)0 .. 20,0000%00:00 (00:00)
68 Lift It Jan 20, 2017 $4.99N/A (N/A)50,000 .. 100,0000%00:00 (00:00)
69 Asphyxia Aug 4, 2015 $5.99N/A (N/A)20,000 .. 50,0000%00:00 (00:00)
70 Feesh Feb 1, 2016 $0.99N/A (N/A)0 .. 20,0000%00:00 (00:00)
71 In Between Aug 21, 2015 $11.99N/A (N/A/68%)50,000 .. 100,0000%00:00 (00:00)
72 Our Love Will Grow Dec 4, 2015 $4.99N/A (N/A)20,000 .. 50,0000%00:00 (00:00)
73 Robot vs Birds Zombies Jun 1, 2013 $0.99N/A (N/A)500,000 .. 1,000,00014.29%00:50 (00:16)
74 Space Drifters 2D Mar 28, 2016 $0.99N/A (N/A)20,000 .. 50,0000%00:00 (00:00)
75 Collisions Jul 28, 2015 $3.99N/A (N/A)20,000 .. 50,0000%00:00 (00:00)
76 Gravity Error Aug 12, 2015 $4.99N/A (N/A)0 .. 20,0000%00:00 (00:00)
77 Labyrinth Simulator Sep 21, 2015 $4.99N/A (N/A)0 .. 20,0000%00:00 (00:00)
78 Koala Kids Jun 22, 2015 $1.99N/A (N/A)20,000 .. 50,0000%00:00 (00:00)

Tags over time:

Access restricted.

This feature is only available to users with special access rights. Sorry.

If you want to proceed, you need to register or log in first and then back Steam Spy on Patreon. Look for Indie or Pro pledge.

Don't forget to use the same email as on Steam Spy!

Owners of this game also own:

Access restricted.

This feature is only available to users with special access rights. Sorry.

If you want to proceed, you need to register or log in first and then back Steam Spy on Patreon. Look for Indie or Pro pledge.

Don't forget to use the same email as on Steam Spy!

Playtime distribution:

Access restricted.

This feature is only available to users with special access rights. Sorry.

If you want to proceed, you need to register or log in first and then back Steam Spy on Patreon. Look for Indie or Pro pledge.

Don't forget to use the same email as on Steam Spy!

Playtime (2 weeks):

Access restricted.

This feature is only available to users with special access rights. Sorry.

If you want to proceed, you need to register or log in first and then back Steam Spy on Patreon. Look for Indie or Pro pledge.

Don't forget to use the same email as on Steam Spy!

User reviews:

Login required.

Please register or log in to see this information.